35分钟前
跑道 逆风 侧风 长度
8/26 2 千吨 4 千吨 2.440 米
METAR ETNT 031320Z 02005KT 9999 SCT030 SCT080 18/11 Q1013 BLU+BLU+ TEMPO WHT

METAR定义 | 嵌入

METAR Wittmundhafen Air Base

该字段位于德国中。 机场有{a,plural,=1{一条跑道} other{#跑道}}: 8/26 (2.440 米)

该报告是针对2021年8月3日 15:20, 当地时间上的Wittmundhafen Air Base所做的。

机场观察

风来自北北东 (020°)方向,速度为5 千吨。

可见度为10 公里 或者更多。

有疏云,零星散落的云朵在3.000 ft的高度 和 疏云,零星散落的云朵在8.000 ft的高度。 没有观察到天花板。

温度和风寒是18 °C。 露点为11 °C,相对湿度为64%。 海平面上的气压为1013 压力 (QNH)。

发展趋势

  • 暂时的

    可变方向的风很小或没有。

白天

今天,太阳从05:48升起,在21:22降落。 这适用于Wittmundhafen Air Base,世界夏令时可能有所不同。 当地时间与世界标准时间之间的时差为+2 小时。 夏令时目前正在进行中。

历史数据

您会帮助我们保持Metar-Taf.com正常运行吗?
您的贡献有助于网站的进一步开发并支付费用。

没有更多广告

您是捐款5美元还是更多?然后,我们将永远不会再向您展示广告,这是我们永恒的感谢!
捐赠前先登录

您是否要在网站上Wittmundhafen Air Base飞行的天气? 阅读更多   自由!